TimeMDT,TemperatureF,Dew PointF,Humidity,Sea Level PressureIn,VisibilityMPH,Wind Direction,Wind SpeedMPH,Gust SpeedMPH,PrecipitationIn,Events,Conditions,WindDirDegrees,DateUTC
12:53 AM,50.0,32.0,50,29.75,10.0,Variable,6.9,-,N/A,,Overcast,0,2013-04-05 06:53:00
1:53 AM,50.0,32.0,50,29.74,10.0,SE,5.8,-,N/A,,Overcast,130,2013-04-05 07:53:00
2:53 AM,48.0,33.1,56,29.72,10.0,North,3.5,-,N/A,,Mostly Cloudy,350,2013-04-05 08:53:00
3:53 AM,48.0,32.0,54,29.69,10.0,Calm,Calm,-,N/A,,Clear,0,2013-04-05 09:53:00
4:53 AM,46.0,30.9,56,29.67,10.0,North,8.1,-,N/A,,Clear,350,2013-04-05 10:53:00
5:53 AM,46.0,30.9,56,29.68,10.0,NNW,3.5,-,N/A,,Clear,340,2013-04-05 11:53:00
6:53 AM,48.0,30.9,52,29.67,10.0,WSW,6.9,-,N/A,,Clear,250,2013-04-05 12:53:00
7:53 AM,48.0,32.0,54,29.67,10.0,WSW,4.6,-,N/A,,Partly Cloudy,240,2013-04-05 13:53:00
8:53 AM,55.9,30.0,37,29.65,10.0,South,3.5,-,N/A,,Clear,190,2013-04-05 14:53:00
9:53 AM,59.0,32.0,36,29.64,10.0,North,5.8,-,N/A,,Clear,360,2013-04-05 15:53:00
10:53 AM,60.1,32.0,35,29.63,10.0,North,10.4,-,N/A,,Clear,360,2013-04-05 16:53:00
11:53 AM,60.1,32.0,35,29.62,10.0,North,11.5,-,N/A,,Scattered Clouds,360,2013-04-05 17:53:00
12:53 PM,60.1,33.1,36,29.60,10.0,NNW,11.5,-,N/A,,Overcast,340,2013-04-05 18:53:00
1:53 PM,57.0,34.0,42,29.60,10.0,NNW,9.2,-,N/A,,Overcast,340,2013-04-05 19:53:00
2:53 PM,50.0,41.0,71,29.62,7.0,East,10.4,-,0.03,Rain,Light Rain,80,2013-04-05 20:53:00
3:53 PM,54.0,43.0,66,29.61,10.0,NNW,9.2,-,0.00,,Scattered Clouds,340,2013-04-05 21:53:00
4:53 PM,53.1,39.9,61,29.65,10.0,NW,25.3,32.2,N/A,,Mostly Cloudy,320,2013-04-05 22:53:00
5:53 PM,42.1,39.0,89,29.73,3.0,NNW,26.5,41.4,0.03,Rain-Thunderstorm,Light Thunderstorms and Rain,340,2013-04-05 23:53:00
6:00 PM,42.8,37.4,81,29.78,2.5,NNW,21.9,39.1,0.02,Rain-Thunderstorm,Thunderstorms and Rain,330,2013-04-06 00:00:00
6:04 PM,42.8,37.4,81,29.78,3.0,NNW,19.6,28.8,0.03,Rain-Thunderstorm,Rain,330,2013-04-06 00:04:00
6:10 PM,41.0,37.4,87,29.77,4.0,NNW,23.0,32.2,0.04,Rain,Rain,340,2013-04-06 00:10:00
6:43 PM,41.0,37.4,87,29.76,10.0,North,21.9,39.1,0.10,Rain,Light Rain,350,2013-04-06 00:43:00
6:53 PM,42.1,39.0,89,29.73,10.0,NNW,16.1,26.5,0.10,,Overcast,330,2013-04-06 00:53:00
7:53 PM,45.0,35.1,68,29.72,10.0,North,5.8,-,N/A,,Overcast,360,2013-04-06 01:53:00
8:53 PM,43.0,37.0,80,29.70,10.0,NNW,12.7,-,N/A,,Clear,330,2013-04-06 02:53:00
9:53 PM,46.9,30.9,54,29.73,10.0,NW,16.1,-,N/A,,Clear,310,2013-04-06 03:53:00
10:53 PM,46.0,30.0,54,29.73,10.0,WNW,10.4,-,N/A,,Clear,300,2013-04-06 04:53:00
11:53 PM,46.9,28.0,48,29.74,10.0,NW,12.7,-,N/A,,Clear,310,2013-04-06 05:53:00